Time;durP1;ratioP1;P1;durP2;ratioP2;P2;SDS_P1;SDS_P2;PMS_P1;PMS_P2;Temp;Humidity;BMP_temperature;BMP_pressure;BME280_temperature;BME280_humidity;BME280_pressure;Samples;Min_cycle;Max_cycle;Signal;HPM_P1;HPM_P2
2023/06/12 00:03:37;;;;;;;8.00;4.43;;;;;;;14.82;46.60;102331.84;10292505;28;20051;-74
2023/06/12 00:08:42;;;;;;;9.43;3.63;;;;;;;15.01;46.60;102333.06;10301317;28;20047;-75
2023/06/12 00:13:46;;;;;;;9.75;4.90;;;;;;;15.03;48.21;102328.09;10263621;29;20032;-74
2023/06/12 00:18:49;;;;;;;9.63;4.30;;;;;;;14.92;47.58;102326.38;10285707;29;20062;-74
2023/06/12 00:23:52;;;;;;;12.57;4.38;;;;;;;14.83;49.01;102331.59;10277496;29;20054;-75
2023/06/12 00:28:54;;;;;;;13.32;4.53;;;;;;;14.65;49.74;102324.56;10283090;28;20056;-74
2023/06/12 00:33:56;;;;;;;11.95;4.63;;;;;;;14.51;50.43;102328.91;10281529;29;20039;-75
2023/06/12 00:38:58;;;;;;;12.68;4.78;;;;;;;14.44;51.07;102331.09;10274747;29;20062;-74
2023/06/12 00:44:01;;;;;;;11.95;5.20;;;;;;;14.38;51.29;102334.84;10288806;28;20055;-74
2023/06/12 00:49:04;;;;;;;14.73;4.80;;;;;;;14.24;51.71;102328.16;10285946;29;20043;-74
2023/06/12 00:54:06;;;;;;;11.00;5.03;;;;;;;14.26;51.47;102326.78;10284811;28;20047;-75
2023/06/12 00:59:09;;;;;;;7.85;3.95;;;;;;;13.65;52.43;102334.50;10283784;29;20051;-75
2023/06/12 01:04:11;;;;;;;8.48;4.65;;;;;;;13.97;52.92;102340.06;10285165;29;20061;-74
2023/06/12 01:09:34;;;;;;;14.35;5.07;;;;;;;14.14;52.59;102339.94;10266296;29;20073;-74
2023/06/12 01:14:37;;;;;;;12.27;4.88;;;;;;;14.62;51.09;102338.09;10278863;28;20438;-74
2023/06/12 01:19:41;;;;;;;10.18;4.65;;;;;;;14.54;51.71;102346.88;10282871;28;20039;-75
2023/06/12 01:25:18;;;;;;;8.38;4.55;;;;;;;14.19;52.05;102335.28;10281949;29;20043;-75
2023/06/12 01:30:20;;;;;;;8.13;4.70;;;;;;;13.90;52.19;102349.66;10281416;29;20054;-75
2023/06/12 01:35:27;;;;;;;10.90;4.22;;;;;;;13.77;53.42;102357.25;10265570;29;20052;-75
2023/06/12 01:40:31;;;;;;;;;;;;;;;14.05;52.87;102356.13;10235504;29;20059;-75
2023/06/12 01:45:35;;;;;;;8.25;4.22;;;;;;;13.86;53.73;102355.69;10292364;28;19923;-74
2023/06/12 01:50:37;;;;;;;13.93;5.25;;;;;;;14.19;53.86;102365.63;10279153;28;20047;-74
2023/06/12 01:55:41;;;;;;;8.15;4.60;;;;;;;14.36;52.47;102359.16;10279148;28;20055;-74
2023/06/12 02:00:44;;;;;;;12.02;5.22;;;;;;;14.66;53.05;102353.03;10262995;29;20046;-74
2023/06/12 02:05:47;;;;;;;8.77;4.93;;;;;;;14.92;53.16;102365.06;10279440;29;20417;-74
2023/06/12 02:10:49;;;;;;;18.02;5.80;;;;;;;15.27;53.21;102354.19;10281730;29;20050;-74
2023/06/12 02:15:51;;;;;;;12.05;5.22;;;;;;;15.27;53.90;102356.97;10280402;29;20078;-73
2023/06/12 02:20:53;;;;;;;10.85;5.45;;;;;;;15.46;54.11;102356.47;10277746;29;20063;-74
2023/06/12 02:25:56;;;;;;;10.98;6.13;;;;;;;15.69;54.07;102356.00;10265184;29;20524;-74
2023/06/12 02:30:58;;;;;;;17.35;6.97;;;;;;;15.84;53.67;102352.44;10279268;28;20039;-74
2023/06/12 02:36:08;;;;;;;22.67;12.60;;;;;;;16.27;52.83;102353.81;10279324;29;20039;-74
2023/06/12 02:41:12;;;;;;;24.05;10.38;;;;;;;16.29;53.38;102355.19;10264218;29;20050;-74
2023/06/12 02:46:15;;;;;;;20.33;8.90;;;;;;;16.19;53.89;102360.75;10278731;29;20054;-75
2023/06/12 02:51:17;;;;;;;19.55;10.43;;;;;;;16.51;53.56;102366.00;10276684;29;20054;-74
2023/06/12 02:56:20;;;;;;;17.45;8.77;;;;;;;16.41;54.42;102362.41;10277088;29;20054;-74
2023/06/12 03:01:23;;;;;;;25.42;13.40;;;;;;;16.65;53.80;102362.63;10280919;28;20118;-74
2023/06/12 03:06:28;;;;;;;21.10;11.32;;;;;;;16.75;53.93;102357.09;10277942;29;20521;-75
2023/06/12 03:11:32;;;;;;;23.00;12.45;;;;;;;17.13;53.43;102367.53;10257799;29;20053;-74
2023/06/12 03:16:36;;;;;;;24.42;12.52;;;;;;;16.80;54.23;102362.63;10267815;29;20051;-74
2023/06/12 03:21:38;;;;;;;19.50;11.57;;;;;;;17.12;53.35;102368.63;10273785;29;20070;-74
2023/06/12 03:26:41;;;;;;;23.58;11.55;;;;;;;17.21;53.81;102379.16;10280101;29;20043;-74
2023/06/12 03:31:45;;;;;;;19.40;10.60;;;;;;;17.62;52.91;102372.28;10281308;29;20391;-74
2023/06/12 03:36:47;;;;;;;18.83;10.18;;;;;;;17.92;52.97;102374.06;10280392;29;20047;-75
2023/06/12 03:41:57;;;;;;;17.13;7.75;;;;;;;18.35;52.18;102369.56;10280820;28;20055;-75
2023/06/12 03:47:08;;;;;;;10.30;6.10;;;;;;;18.53;51.53;102379.13;10271792;29;20055;-75
2023/06/12 03:52:11;;;;;;;12.98;6.63;;;;;;;18.94;51.14;102379.56;10270471;29;20054;-75
2023/06/12 03:57:14;;;;;;;10.43;6.13;;;;;;;19.15;50.57;102379.34;10276391;29;20074;-75
2023/06/12 04:02:17;;;;;;;8.60;5.28;;;;;;;19.76;48.60;102381.31;10282984;29;20525;-75
2023/06/12 04:07:21;;;;;;;10.93;5.13;;;;;;;19.76;47.56;102378.53;10252888;29;20052;-75
2023/06/12 04:12:23;;;;;;;10.57;5.07;;;;;;;19.78;48.00;102376.28;10277789;29;20039;-74
2023/06/12 04:17:25;;;;;;;9.00;4.70;;;;;;;20.10;46.84;102373.53;10284862;29;20058;-75
2023/06/12 04:22:29;;;;;;;8.25;3.90;;;;;;;20.63;45.91;102376.00;10284443;29;20520;-75
2023/06/12 04:27:33;;;;;;;6.95;4.40;;;;;;;21.25;44.09;102365.31;10283624;29;20043;-75
2023/06/12 04:32:35;;;;;;;7.82;3.75;;;;;;;21.40;42.62;102371.72;10285191;29;20516;-75
2023/06/12 04:37:37;;;;;;;8.00;3.15;;;;;;;21.53;40.93;102373.69;10283480;29;20054;-76
2023/06/12 04:42:41;;;;;;;4.38;2.95;;;;;;;21.80;40.96;102369.97;10246833;29;20498;-76
2023/06/12 04:47:43;;;;;;;4.35;2.85;;;;;;;22.00;39.02;102377.03;10278483;29;20039;-76
2023/06/12 04:52:47;;;;;;;5.15;2.50;;;;;;;22.42;38.45;102376.56;10292302;28;20142;-75
2023/06/12 04:57:52;;;;;;;5.32;3.10;;;;;;;22.45;37.75;102369.50;10286260;29;20121;-75
2023/06/12 05:02:56;;;;;;;4.28;2.83;;;;;;;23.00;37.03;102372.78;10283380;29;20063;-75
2023/06/12 05:07:58;;;;;;;4.60;2.78;;;;;;;23.65;35.36;102368.38;10283476;29;20043;-76
2023/06/12 05:13:02;;;;;;;4.72;3.17;;;;;;;23.90;33.18;102372.31;10282949;29;20051;-75
2023/06/12 05:18:05;;;;;;;7.45;2.88;;;;;;;24.02;33.01;102370.50;10270097;29;20093;-74
2023/06/12 05:23:07;;;;;;;8.45;2.90;;;;;;;23.54;33.06;102381.00;10266984;28;20058;-74
2023/06/12 05:28:11;;;;;;;7.00;3.13;;;;;;;23.46;33.87;102379.84;10275286;29;20047;-74
2023/06/12 05:33:13;;;;;;;3.95;2.15;;;;;;;24.60;31.43;102377.53;10260445;29;20040;-75
2023/06/12 05:38:16;;;;;;;3.65;2.05;;;;;;;24.00;31.39;102380.41;10256576;29;20430;-75
2023/06/12 05:43:18;;;;;;;4.85;2.25;;;;;;;24.42;30.10;102381.53;10271226;29;20050;-76
2023/06/12 05:48:22;;;;;;;3.65;1.90;;;;;;;24.14;29.72;102372.66;10266403;28;20040;-74
2023/06/12 05:53:25;;;;;;;2.67;2.15;;;;;;;24.38;29.66;102374.13;10285959;28;20505;-74
2023/06/12 05:58:28;;;;;;;2.83;1.77;;;;;;;24.35;28.94;102368.03;10274148;29;20074;-75
2023/06/12 06:03:33;;;;;;;2.30;1.80;;;;;;;24.90;27.40;102370.00;10275144;28;20059;-74
2023/06/12 06:08:36;;;;;;;7.20;2.40;;;;;;;24.90;27.62;102370.00;10262307;29;20039;-74
2023/06/12 06:13:41;;;;;;;1.70;1.60;;;;;;;25.74;26.53;102361.78;10270635;29;20054;-74
2023/06/12 06:18:45;;;;;;;1.90;1.63;;;;;;;25.49;25.44;102367.22;10243254;29;20039;-74
2023/06/12 06:23:48;;;;;;;5.13;1.75;;;;;;;25.39;25.32;102364.81;10288027;28;20062;-74
2023/06/12 06:28:50;;;;;;;3.70;1.67;;;;;;;26.29;25.38;102360.63;10268211;29;20047;-74
2023/06/12 06:33:53;;;;;;;1.73;1.58;;;;;;;25.64;23.40;102371.41;10278772;29;20055;-73
2023/06/12 06:38:55;;;;;;;1.55;1.40;;;;;;;25.34;24.30;102361.38;10252108;29;20427;-74
2023/06/12 06:43:58;;;;;;;3.42;1.52;;;;;;;25.35;23.36;102357.41;10279307;29;20454;-73
2023/06/12 06:49:02;;;;;;;1.45;1.13;;;;;;;26.36;21.78;102360.91;10280871;29;20046;-74
2023/06/12 06:54:05;;;;;;;1.58;1.20;;;;;;;26.43;22.28;102352.72;10271557;29;20046;-74
2023/06/12 06:59:08;;;;;;;1.20;1.08;;;;;;;26.98;20.19;102363.50;10275312;29;20062;-73
2023/06/12 07:04:11;;;;;;;0.95;0.85;;;;;;;26.34;21.01;102357.59;10270780;29;20055;-73
2023/06/12 07:09:14;;;;;;;1.10;1.00;;;;;;;26.47;20.92;102355.66;10279953;29;20051;-73
2023/06/12 07:14:16;;;;;;;2.90;1.35;;;;;;;26.74;22.10;102355.84;10276914;29;20247;-73
2023/06/12 07:19:19;;;;;;;1.67;1.10;;;;;;;26.70;22.64;102354.06;10286802;28;20054;-74
2023/06/12 07:24:21;;;;;;;1.67;1.27;;;;;;;27.27;22.77;102353.19;10270964;29;20044;-73
2023/06/12 07:29:24;;;;;;;3.25;1.40;;;;;;;26.95;21.70;102347.28;10277528;28;20040;-74
2023/06/12 07:34:26;;;;;;;1.63;1.40;;;;;;;26.58;22.99;102352.06;10296110;28;20050;-73
2023/06/12 07:39:29;;;;;;;1.48;1.13;;;;;;;25.92;23.89;102352.03;10284650;28;20062;-73
2023/06/12 07:44:33;;;;;;;3.75;1.08;;;;;;;26.55;22.91;102352.75;10260234;29;20073;-74
2023/06/12 07:49:35;;;;;;;1.20;1.00;;;;;;;26.68;22.02;102357.22;10267787;29;20059;-74
2023/06/12 07:54:37;;;;;;;3.65;1.50;;;;;;;26.28;23.05;102347.72;10279370;29;20046;-73
2023/06/12 07:59:40;;;;;;;2.50;1.08;;;;;;;26.67;22.56;102355.59;10273687;29;20510;-73
2023/06/12 08:04:44;;;;;;;1.50;1.02;;;;;;;27.14;21.52;102351.53;10277277;29;20534;-73
2023/06/12 08:09:49;;;;;;;1.20;1.15;;;;;;;26.67;22.44;102347.13;10278728;29;20039;-73
2023/06/12 08:14:53;;;;;;;1.50;1.40;;;;;;;26.12;22.97;102342.75;10274193;29;20699;-74
2023/06/12 08:19:56;;;;;;;2.05;1.10;;;;;;;26.81;22.07;102349.63;10273311;29;20406;-72
2023/06/12 08:25:01;;;;;;;1.73;1.10;;;;;;;26.92;22.22;102356.44;10262434;29;20043;-73
2023/06/12 08:30:04;;;;;;;1.85;1.10;;;;;;;26.78;23.50;102355.16;10279748;28;20044;-73
2023/06/12 08:35:08;;;;;;;1.95;1.45;;;;;;;26.63;22.25;102345.38;10268556;29;20258;-73
2023/06/12 08:40:11;;;;;;;1.58;1.27;;;;;;;25.72;23.17;102342.47;10269564;29;20553;-74
2023/06/12 08:45:15;;;;;;;2.95;1.50;;;;;;;26.54;22.41;102350.28;10261853;29;20635;-74
2023/06/12 08:50:18;;;;;;;1.60;1.00;;;;;;;26.69;23.43;102347.59;10268300;29;20415;-74
2023/06/12 08:55:21;;;;;;;2.50;1.40;;;;;;;25.85;24.19;102351.75;10273866;29;20442;-74
2023/06/12 09:00:23;;;;;;;2.22;1.60;;;;;;;26.11;23.29;102343.91;10274768;28;20058;-74
2023/06/12 09:05:30;;;;;;;2.42;1.30;;;;;;;26.48;23.72;102346.06;10269599;29;20043;-74
2023/06/12 09:10:32;;;;;;;;;;;;;;;25.70;24.51;102344.78;10262830;29;20043;-75
2023/06/12 09:15:34;;;;;;;1.20;1.10;;;;;;;25.38;25.18;102334.25;10264267;29;19922;-75
2023/06/12 09:20:37;;;;;;;1.50;1.38;;;;;;;25.28;25.95;102338.25;10258611;29;20043;-75
2023/06/12 09:25:41;;;;;;;1.98;1.48;;;;;;;25.25;25.66;102325.72;10270358;29;20044;-76
2023/06/12 09:30:43;;;;;;;2.38;1.38;;;;;;;24.10;26.59;102335.19;10276416;29;20513;-76
2023/06/12 09:35:52;;;;;;;3.63;1.58;;;;;;;23.11;27.73;102326.53;10283110;29;20569;-74
2023/06/12 09:40:57;;;;;;;1.48;1.20;;;;;;;22.71;28.24;102319.25;10278004;28;20043;-77
2023/06/12 09:46:06;;;;;;;2.47;1.42;;;;;;;22.73;28.52;102316.97;10279791;29;20156;-77
2023/06/12 09:51:09;;;;;;;1.55;1.30;;;;;;;22.20;28.93;102321.47;10280351;29;20040;-78
2023/06/12 09:56:11;;;;;;;3.33;1.67;;;;;;;21.80;29.58;102317.69;10278805;28;20516;-82
2023/06/12 10:01:17;;;;;;;1.70;1.42;;;;;;;21.88;29.89;102313.34;10277186;29;20514;-76
2023/06/12 10:06:21;;;;;;;2.45;1.33;;;;;;;22.01;29.43;102311.59;10278216;29;20074;-75
2023/06/12 10:11:25;;;;;;;1.67;1.40;;;;;;;21.96;29.28;102309.78;10278721;28;20047;-76
2023/06/12 10:16:27;;;;;;;3.42;1.30;;;;;;;22.06;29.21;102308.72;10280249;28;20066;-76
2023/06/12 10:21:30;;;;;;;1.70;1.30;;;;;;;22.07;29.05;102296.41;10280003;28;20062;-76
2023/06/12 10:26:33;;;;;;;2.08;1.80;;;;;;;21.85;29.13;102292.41;10280928;29;20039;-75
2023/06/12 10:31:36;;;;;;;2.05;1.60;;;;;;;21.93;29.60;102302.03;10273241;29;20051;-75
2023/06/12 10:36:39;;;;;;;2.20;1.20;;;;;;;22.06;29.49;102295.56;10252045;29;20043;-75
2023/06/12 10:41:58;;;;;;;4.10;1.23;;;;;;;21.67;29.40;102287.84;10275852;29;20039;-75
2023/06/12 10:47:02;;;;;;;1.98;1.23;;;;;;;21.43;29.43;102282.56;10269876;29;20078;-75
2023/06/12 10:52:19;;;;;;;1.92;1.15;;;;;;;21.26;29.57;102274.00;10280417;29;20051;-79
2023/06/12 10:57:27;;;;;;;3.67;1.48;;;;;;;21.42;30.23;102271.69;10275176;29;20039;-78
2023/06/12 11:02:30;;;;;;;1.67;1.42;;;;;;;21.45;29.66;102266.31;10279755;28;20530;-75
2023/06/12 11:07:33;;;;;;;2.60;1.50;;;;;;;21.56;29.70;102264.09;10279642;29;20051;-76
2023/06/12 11:12:35;;;;;;;2.50;1.20;;;;;;;21.61;29.24;102258.38;10272584;29;20050;-78
2023/06/12 11:17:37;;;;;;;1.73;1.42;;;;;;;21.52;29.51;102249.09;10278836;28;20039;-78
2023/06/12 11:22:39;;;;;;;2.13;1.67;;;;;;;21.69;29.61;102246.44;10273659;29;20069;-79
2023/06/12 11:27:42;;;;;;;2.95;1.83;;;;;;;21.63;29.43;102239.31;10279928;28;20050;-79
2023/06/12 11:32:44;;;;;;;1.75;1.33;;;;;;;21.59;29.16;102236.34;10288350;28;20390;-78
2023/06/12 11:37:46;;;;;;;4.93;1.90;;;;;;;21.65;29.44;102232.28;10276255;28;20038;-83
2023/06/12 11:42:48;;;;;;;1.77;1.40;;;;;;;21.61;29.16;102231.28;10274814;28;20090;-78
2023/06/12 11:47:51;;;;;;;2.20;1.50;;;;;;;21.62;29.15;102229.31;10278763;29;20050;-82
2023/06/12 11:52:54;;;;;;;1.65;1.48;;;;;;;21.50;29.98;102229.03;10271944;29;20047;-79
2023/06/12 11:58:01;;;;;;;2.10;1.60;;;;;;;21.61;29.36;102220.09;10275706;29;20047;-79
2023/06/12 12:03:04;;;;;;;3.50;1.77;;;;;;;21.57;29.53;102210.72;10274964;28;20051;-82
2023/06/12 12:08:07;;;;;;;2.08;1.52;;;;;;;21.51;29.78;102203.56;10268860;29;20042;-80
2023/06/12 12:13:09;;;;;;;1.58;1.25;;;;;;;21.25;30.23;102211.75;10294828;28;20043;-82
2023/06/12 12:18:13;;;;;;;2.25;1.83;;;;;;;21.45;29.75;102199.28;10271965;29;20062;-79
2023/06/12 12:23:15;;;;;;;5.53;2.08;;;;;;;21.45;29.94;102193.69;10269035;29;20054;-83
2023/06/12 12:28:17;;;;;;;2.25;1.83;;;;;;;21.49;30.22;102177.09;10298512;28;20522;-79
2023/06/12 12:33:20;;;;;;;2.83;1.50;;;;;;;21.57;30.03;102181.94;10275802;29;20039;-81
2023/06/12 12:38:22;;;;;;;3.78;1.40;;;;;;;21.61;29.81;102169.81;10276874;29;20048;-79
2023/06/12 12:43:25;;;;;;;2.47;1.52;;;;;;;21.46;29.72;102169.38;10271655;29;20059;-83
2023/06/12 12:48:27;;;;;;;2.00;1.33;;;;;;;21.24;29.84;102168.22;10260866;29;20055;-80
2023/06/12 12:53:30;;;;;;;2.17;1.55;;;;;;;21.22;29.48;102164.91;10268097;29;20047;-79
2023/06/12 12:58:32;;;;;;;1.52;1.30;;;;;;;21.22;29.90;102153.72;10285012;29;20417;-79
2023/06/12 13:03:37;;;;;;;1.75;1.35;;;;;;;21.09;29.40;102157.41;10283202;29;20418;-79
2023/06/12 13:08:39;;;;;;;2.15;1.70;;;;;;;20.96;29.66;102149.88;10283733;29;20055;-79
2023/06/12 13:13:41;;;;;;;2.00;1.77;;;;;;;21.07;30.28;102140.16;10273752;28;20059;-80
2023/06/12 13:18:44;;;;;;;1.85;1.50;;;;;;;21.39;29.91;102135.50;10275672;29;20047;-84
2023/06/12 13:23:46;;;;;;;1.92;1.60;;;;;;;21.48;29.24;102126.00;10273407;29;20059;-80
2023/06/12 13:28:49;;;;;;;4.30;1.50;;;;;;;21.32;29.57;102124.75;10278115;28;20055;-79
2023/06/12 13:33:51;;;;;;;4.05;2.00;;;;;;;21.15;29.72;102121.81;10276254;29;20549;-79
2023/06/12 13:38:54;;;;;;;4.65;2.15;;;;;;;21.21;30.03;102123.34;10272081;29;20039;-79
2023/06/12 13:43:57;;;;;;;2.75;1.50;;;;;;;21.08;30.29;102113.88;10260494;29;20054;-81
2023/06/12 13:49:02;;;;;;;1.80;1.25;;;;;;;21.06;30.32;102107.78;10279280;29;20422;-78
2023/06/12 13:54:05;;;;;;;1.98;1.55;;;;;;;20.93;30.29;102097.50;10276123;29;20050;-75
2023/06/12 13:59:07;;;;;;;1.98;1.45;;;;;;;20.88;30.11;102095.66;10274299;28;20592;-76
2023/06/12 14:04:10;;;;;;;2.08;1.60;;;;;;;20.82;30.93;102090.50;10276013;29;20043;-78
2023/06/12 14:09:12;;;;;;;3.70;1.42;;;;;;;20.84;30.83;102085.47;10265615;28;20056;-78
2023/06/12 14:14:15;;;;;;;2.78;1.98;;;;;;;20.94;30.63;102082.41;10257325;29;20052;-77
2023/06/12 14:19:17;;;;;;;4.38;2.00;;;;;;;20.94;31.44;102088.81;10272577;29;20035;-78
2023/06/12 14:24:20;;;;;;;3.30;2.08;;;;;;;20.93;30.68;102080.75;10264464;28;20050;-79
2023/06/12 14:29:22;;;;;;;2.25;1.90;;;;;;;20.79;30.96;102078.00;10281799;29;20043;-77
2023/06/12 14:34:25;;;;;;;2.67;1.70;;;;;;;20.67;31.26;102078.59;10280041;29;20043;-77
2023/06/12 14:39:28;;;;;;;2.13;1.88;;;;;;;20.61;31.08;102073.41;10277350;28;20419;-77
2023/06/12 14:44:30;;;;;;;3.92;1.45;;;;;;;20.57;31.15;102062.06;10290457;28;20055;-76
2023/06/12 14:49:32;;;;;;;5.78;2.20;;;;;;;20.59;31.10;102057.00;10272490;29;20039;-77
2023/06/12 14:54:34;;;;;;;4.75;2.15;;;;;;;20.61;31.37;102057.50;10276613;28;20039;-75
2023/06/12 14:59:36;;;;;;;3.03;1.83;;;;;;;20.53;31.28;102049.09;10286053;29;20043;-76
2023/06/12 15:04:39;;;;;;;3.35;1.83;;;;;;;20.50;31.28;102042.19;10277841;29;20048;-78
2023/06/12 15:09:42;;;;;;;2.75;1.80;;;;;;;20.62;31.25;102048.00;10279602;29;20506;-78
2023/06/12 15:14:45;;;;;;;2.03;1.35;;;;;;;20.67;30.84;102036.75;10268322;29;20052;-81
2023/06/12 15:19:47;;;;;;;4.32;1.80;;;;;;;20.66;30.67;102039.84;10265009;29;20075;-78
2023/06/12 15:24:49;;;;;;;3.63;1.67;;;;;;;20.70;30.82;102036.09;10276245;29;20048;-81
2023/06/12 15:29:52;;;;;;;3.88;1.70;;;;;;;20.57;30.47;102036.97;10257116;29;20047;-78
2023/06/12 15:34:54;;;;;;;4.93;1.55;;;;;;;20.43;30.95;102027.81;10275454;29;20502;-75
2023/06/12 15:39:56;;;;;;;3.72;2.10;;;;;;;20.39;31.19;102035.13;10266435;29;20039;-76
2023/06/12 15:44:58;;;;;;;5.65;2.10;;;;;;;20.34;31.19;102036.09;10268424;28;20055;-76
2023/06/12 15:50:01;;;;;;;5.15;2.00;;;;;;;20.30;31.54;102029.47;10275863;29;20051;-76
2023/06/12 15:55:06;;;;;;;4.03;2.50;;;;;;;20.27;31.87;102026.47;10263207;29;20047;-79
2023/06/12 16:00:09;;;;;;;2.60;1.95;;;;;;;20.31;31.66;102019.16;10267424;29;20545;-77
2023/06/12 16:05:11;;;;;;;5.25;2.28;;;;;;;20.23;31.78;102017.94;10277609;29;20062;-76
2023/06/12 16:10:13;;;;;;;5.43;2.30;;;;;;;20.12;31.73;102010.91;10280838;28;20047;-76
2023/06/12 16:15:15;;;;;;;3.40;2.22;;;;;;;20.07;30.76;102016.63;10286244;29;20039;-74
2023/06/12 16:20:18;;;;;;;3.38;2.00;;;;;;;20.03;30.17;102012.81;10279710;29;20050;-75
2023/06/12 16:25:21;;;;;;;4.50;2.20;;;;;;;19.95;29.43;102008.78;10286507;29;20147;-75
2023/06/12 16:30:24;;;;;;;3.10;1.60;;;;;;;19.88;29.36;102011.16;10273944;29;20043;-82
2023/06/12 16:35:26;;;;;;;2.97;1.63;;;;;;;19.77;29.17;102004.97;10280934;29;20051;-82
2023/06/12 16:40:28;;;;;;;3.38;2.17;;;;;;;19.69;28.88;101997.34;10256799;29;20050;-85
2023/06/12 16:45:30;;;;;;;2.95;1.77;;;;;;;19.69;28.94;101996.53;10279437;29;20442;-85
2023/06/12 16:50:32;;;;;;;5.03;1.77;;;;;;;19.65;28.50;101990.75;10283944;28;20050;-83
2023/06/12 16:55:34;;;;;;;3.78;2.10;;;;;;;19.74;28.58;101985.28;10283257;28;20082;-82
2023/06/12 17:00:37;;;;;;;4.53;1.70;;;;;;;19.69;28.73;101988.19;10273550;29;20051;-87
2023/06/12 17:05:39;;;;;;;2.97;1.83;;;;;;;19.70;28.77;101981.47;10277233;29;20391;-93
2023/06/12 17:10:42;;;;;;;2.28;1.77;;;;;;;19.77;29.69;101977.13;10284264;29;20054;-88
2023/06/12 17:15:44;;;;;;;3.08;1.88;;;;;;;19.66;28.27;101964.56;10271050;29;20414;-92
2023/06/12 17:20:46;;;;;;;2.30;1.48;;;;;;;19.57;27.94;101967.22;10285929;29;20513;-83
2023/06/12 17:25:48;;;;;;;5.03;1.77;;;;;;;19.61;26.94;101961.03;10279160;29;20047;-86
2023/06/12 17:30:51;;;;;;;1.90;1.25;;;;;;;19.44;27.37;101956.91;10284262;28;20387;-81
2023/06/12 17:35:53;;;;;;;1.90;1.70;;;;;;;19.43;26.83;101948.84;10282951;29;20046;-88
2023/06/12 17:40:56;;;;;;;2.95;1.20;;;;;;;19.40;27.00;101952.25;10268893;29;20070;-88
2023/06/12 17:45:58;;;;;;;2.22;1.38;;;;;;;19.45;27.02;101954.94;10278276;28;20051;-78
2023/06/12 17:51:03;;;;;;;3.78;1.80;;;;;;;19.46;26.89;101949.06;10274619;29;20519;-80
2023/06/12 17:56:06;;;;;;;1.88;1.60;;;;;;;19.40;26.17;101955.84;10247624;28;20044;-83
2023/06/12 18:01:10;;;;;;;2.03;1.25;;;;;;;19.35;25.73;101955.97;10277070;28;20090;-85
2023/06/12 18:06:12;;;;;;;2.05;1.45;;;;;;;19.28;26.54;101948.03;10277922;28;20031;-84
2023/06/12 18:11:14;;;;;;;4.57;1.48;;;;;;;19.30;25.95;101944.13;10279377;28;20047;-82
2023/06/12 18:16:16;;;;;;;7.60;1.80;;;;;;;19.24;25.74;101946.97;10277197;28;20046;-81
2023/06/12 18:21:19;;;;;;;2.08;1.35;;;;;;;19.41;26.41;101948.31;10269915;28;20046;-82
2023/06/12 18:26:21;;;;;;;3.83;1.45;;;;;;;19.39;26.21;101948.63;10277140;28;20050;-81
2023/06/12 18:31:23;;;;;;;4.68;2.15;;;;;;;19.16;26.32;101946.88;10278864;28;20549;-88
2023/06/12 18:36:26;;;;;;;2.75;1.98;;;;;;;19.03;26.57;101944.88;10266053;29;20046;-85
2023/06/12 18:41:29;;;;;;;5.25;2.15;;;;;;;19.06;27.07;101945.09;10281162;28;20102;-82
2023/06/12 18:46:33;;;;;;;3.28;2.28;;;;;;;19.15;27.08;101946.06;10280703;28;20065;-86
2023/06/12 18:51:35;;;;;;;2.67;1.85;;;;;;;19.12;27.00;101940.28;10280049;28;20043;-91
2023/06/12 18:56:38;;;;;;;4.20;2.10;;;;;;;19.17;26.67;101942.97;10293177;28;20039;-89
2023/06/12 19:01:40;;;;;;;3.10;1.85;;;;;;;19.12;26.52;101948.63;10277606;28;20043;-86
2023/06/12 19:06:43;;;;;;;7.15;2.13;;;;;;;18.94;26.30;101931.69;10274737;28;20039;-89
2023/06/12 19:11:45;;;;;;;5.95;2.30;;;;;;;18.88;26.82;101944.03;10278827;28;20071;-90
2023/06/12 19:16:47;;;;;;;5.30;2.42;;;;;;;18.70;26.61;101939.34;10273819;29;20038;-85
2023/06/12 19:21:49;;;;;;;6.72;2.35;;;;;;;18.41;26.46;101941.50;10272356;29;20047;-84
2023/06/12 19:26:51;;;;;;;3.28;1.90;;;;;;;18.28;27.29;101938.34;10268371;28;20035;-86
2023/06/12 19:31:54;;;;;;;3.40;1.80;;;;;;;18.11;28.53;101935.28;10269524;28;20044;-82
2023/06/12 19:36:56;;;;;;;3.88;1.77;;;;;;;17.92;29.23;101940.00;10260643;28;20031;-80
2023/06/12 19:41:58;;;;;;;5.90;2.03;;;;;;;17.58;30.41;101943.75;10271953;28;20039;-78
2023/06/12 19:47:00;;;;;;;2.65;1.80;;;;;;;17.49;31.04;101946.31;10269837;29;20585;-78
2023/06/12 19:52:03;;;;;;;2.90;1.80;;;;;;;17.65;31.91;101944.19;10268702;28;20035;-77
2023/06/12 19:57:05;;;;;;;3.83;2.10;;;;;;;17.84;31.87;101938.69;10269070;28;20047;-78
2023/06/12 20:02:08;;;;;;;4.35;2.65;;;;;;;17.84;32.42;101941.47;10264390;28;20419;-77
2023/06/12 20:07:10;;;;;;;4.72;2.60;;;;;;;17.53;33.45;101932.72;10264615;28;20478;-78
2023/06/12 20:12:12;;;;;;;3.65;2.22;;;;;;;17.54;33.78;101947.41;10272625;28;20042;-82
2023/06/12 20:17:14;;;;;;;4.13;1.92;;;;;;;17.53;34.46;101941.03;10275211;29;20054;-85
2023/06/12 20:22:17;;;;;;;4.18;2.55;;;;;;;17.59;34.84;101941.78;10260861;29;20047;-81
2023/06/12 20:27:19;;;;;;;3.03;1.95;;;;;;;17.61;33.83;101939.53;10263879;29;20541;-81
2023/06/12 20:32:22;;;;;;;7.38;2.65;;;;;;;17.64;34.45;101950.88;10265819;28;20455;-82
2023/06/12 20:37:24;;;;;;;6.30;3.03;;;;;;;17.87;34.15;101940.03;10272336;29;20502;-87
2023/06/12 20:42:27;;;;;;;6.03;2.80;;;;;;;17.92;33.82;101940.00;10277788;29;20046;-86
2023/06/12 20:47:30;;;;;;;6.78;2.97;;;;;;;17.98;33.77;101947.13;10282987;28;20044;-78
2023/06/12 20:52:32;;;;;;;4.35;2.65;;;;;;;18.07;34.35;101942.56;10279384;29;20055;-79
2023/06/12 20:57:35;;;;;;;4.97;2.28;;;;;;;18.10;34.41;101938.34;10267968;29;20498;-79
2023/06/12 21:02:38;;;;;;;8.07;2.88;;;;;;;18.03;34.53;101944.25;10285424;29;20046;-79
2023/06/12 21:07:40;;;;;;;3.75;2.50;;;;;;;18.14;33.95;101937.44;10284129;29;20061;-81
2023/06/12 21:12:42;;;;;;;3.65;2.10;;;;;;;18.09;33.60;101943.09;10265280;28;20043;-81
2023/06/12 21:17:44;;;;;;;4.80;2.80;;;;;;;18.13;33.81;101941.34;10270678;29;20055;-77
2023/06/12 21:22:47;;;;;;;2.90;2.05;;;;;;;17.96;34.04;101946.59;10283786;29;20051;-78
2023/06/12 21:27:50;;;;;;;4.13;2.03;;;;;;;17.66;33.73;101953.34;10283327;29;20038;-78
2023/06/12 21:32:52;;;;;;;4.75;2.47;;;;;;;17.21;34.56;101949.16;10283818;28;20053;-77
2023/06/12 21:37:54;;;;;;;5.25;2.47;;;;;;;16.96;35.60;101945.53;10280533;28;20039;-78
2023/06/12 21:42:56;;;;;;;8.70;3.13;;;;;;;17.09;35.38;101949.56;10274482;29;20144;-78
2023/06/12 21:47:58;;;;;;;3.35;2.20;;;;;;;16.92;36.00;101958.31;10281150;28;20046;-79
2023/06/12 21:53:01;;;;;;;3.67;2.17;;;;;;;17.08;35.92;101939.59;10282789;28;20055;-78
2023/06/12 21:58:03;;;;;;;4.57;2.20;;;;;;;17.33;36.30;101944.03;10278217;29;20654;-78
2023/06/12 22:03:06;;;;;;;6.72;2.50;;;;;;;17.43;36.52;101949.47;10281042;29;20048;-77
2023/06/12 22:08:08;;;;;;;2.42;1.70;;;;;;;17.22;38.29;101945.28;10282782;29;20055;-78
2023/06/12 22:13:10;;;;;;;5.00;2.03;;;;;;;17.04;39.93;101942.13;10281687;29;20502;-78
2023/06/12 22:18:13;;;;;;;5.57;2.08;;;;;;;17.21;39.60;101946.41;10281044;29;20047;-78
2023/06/12 22:23:15;;;;;;;5.88;1.88;;;;;;;17.30;39.77;101941.84;10281779;28;20521;-78
2023/06/12 22:28:20;;;;;;;4.00;1.77;;;;;;;17.60;39.66;101935.94;10261761;29;20036;-78
2023/06/12 22:33:23;;;;;;;3.20;2.13;;;;;;;17.66;39.36;101945.84;10271133;29;20062;-78
2023/06/12 22:38:25;;;;;;;2.50;1.73;;;;;;;17.64;39.86;101942.53;10284208;28;20528;-78
2023/06/12 22:43:29;;;;;;;4.35;1.63;;;;;;;17.80;39.89;101948.75;10279454;29;20422;-78
2023/06/12 22:48:36;;;;;;;4.70;2.05;;;;;;;17.83;39.81;101944.56;10277904;28;20114;-76
2023/06/12 22:53:38;;;;;;;2.70;1.75;;;;;;;17.41;40.88;101951.72;10277438;28;20046;-77
2023/06/12 22:58:41;;;;;;;4.85;2.20;;;;;;;17.50;40.94;101952.69;10281271;28;20043;-77
2023/06/12 23:03:43;;;;;;;6.35;1.88;;;;;;;17.56;41.32;101946.00;10278421;28;20505;-77
2023/06/12 23:08:46;;;;;;;2.67;1.80;;;;;;;17.53;41.34;101954.06;10273716;28;20042;-77
2023/06/12 23:13:50;;;;;;;2.38;2.08;;;;;;;17.56;41.47;101951.53;10267525;28;20044;-77